sensor_id;sensor_type;location;lat;lon;timestamp;P1;durP1;ratioP1;P2;durP2;ratioP2
12665;SDS011;58531;59.050;17.416;2023-05-14T07:42:42;4.35;;;3.95;;
12665;SDS011;58531;59.050;17.416;2023-05-14T07:45:09;4.77;;;3.70;;
12665;SDS011;58531;59.050;17.416;2023-05-14T07:47:37;4.77;;;3.73;;
12665;SDS011;58531;59.050;17.416;2023-05-14T07:50:05;4.03;;;3.73;;
12665;SDS011;58531;59.050;17.416;2023-05-14T07:52:32;3.93;;;3.63;;
12665;SDS011;58531;59.050;17.416;2023-05-14T07:55:01;4.00;;;3.70;;
12665;SDS011;58531;59.050;17.416;2023-05-14T07:57:28;6.67;;;3.87;;
12665;SDS011;58531;59.050;17.416;2023-05-14T07:59:56;4.20;;;3.90;;
12665;SDS011;58531;59.050;17.416;2023-05-14T08:02:24;4.43;;;4.03;;
12665;SDS011;58531;59.050;17.416;2023-05-14T08:04:53;4.33;;;3.90;;
12665;SDS011;58531;59.050;17.416;2023-05-14T08:07:20;4.40;;;4.00;;
12665;SDS011;58531;59.050;17.416;2023-05-14T08:09:47;4.00;;;3.67;;
12665;SDS011;58531;59.050;17.416;2023-05-14T08:12:14;4.17;;;3.73;;
12665;SDS011;58531;59.050;17.416;2023-05-14T08:14:41;4.07;;;3.67;;
12665;SDS011;58531;59.050;17.416;2023-05-14T08:17:09;5.67;;;3.77;;
12665;SDS011;58531;59.050;17.416;2023-05-14T08:19:36;4.17;;;3.73;;
12665;SDS011;58531;59.050;17.416;2023-05-14T08:22:03;3.80;;;3.50;;
12665;SDS011;58531;59.050;17.416;2023-05-14T08:24:30;3.40;;;3.10;;
12665;SDS011;58531;59.050;17.416;2023-05-14T08:26:57;6.87;;;3.67;;
12665;SDS011;58531;59.050;17.416;2023-05-14T08:29:24;5.50;;;3.40;;
12665;SDS011;58531;59.050;17.416;2023-05-14T08:31:50;3.80;;;3.50;;
12665;SDS011;58531;59.050;17.416;2023-05-14T08:34:19;3.30;;;3.00;;
12665;SDS011;58531;59.050;17.416;2023-05-14T08:36:46;3.47;;;3.07;;
12665;SDS011;58531;59.050;17.416;2023-05-14T08:39:13;4.27;;;3.10;;
12665;SDS011;58531;59.050;17.416;2023-05-14T08:41:39;6.07;;;3.47;;
12665;SDS011;58531;59.050;17.416;2023-05-14T08:44:09;3.47;;;3.17;;
12665;SDS011;58531;59.050;17.416;2023-05-14T08:46:38;3.53;;;3.23;;
12665;SDS011;58531;59.050;17.416;2023-05-14T08:49:07;3.90;;;2.90;;
12665;SDS011;58531;59.050;17.416;2023-05-14T08:51:42;3.90;;;3.30;;
12665;SDS011;58531;59.050;17.416;2023-05-14T08:54:11;3.03;;;2.73;;
12665;SDS011;58531;59.050;17.416;2023-05-14T08:56:41;3.70;;;3.30;;
12665;SDS011;58531;59.050;17.416;2023-05-14T08:59:09;3.73;;;3.30;;
12665;SDS011;58531;59.050;17.416;2023-05-14T09:01:36;3.27;;;2.97;;
12665;SDS011;58531;59.050;17.416;2023-05-14T09:04:03;5.40;;;2.80;;
12665;SDS011;58531;59.050;17.416;2023-05-14T09:06:33;3.17;;;2.80;;
12665;SDS011;58531;59.050;17.416;2023-05-14T09:09:03;3.00;;;2.70;;
12665;SDS011;58531;59.050;17.416;2023-05-14T09:11:30;3.63;;;2.80;;
12665;SDS011;58531;59.050;17.416;2023-05-14T09:13:57;3.13;;;2.57;;
12665;SDS011;58531;59.050;17.416;2023-05-14T09:16:24;4.43;;;2.60;;
12665;SDS011;58531;59.050;17.416;2023-05-14T09:18:51;6.17;;;2.93;;
12665;SDS011;58531;59.050;17.416;2023-05-14T09:21:18;3.13;;;2.83;;
12665;SDS011;58531;59.050;17.416;2023-05-14T09:23:45;2.93;;;2.50;;
12665;SDS011;58531;59.050;17.416;2023-05-14T09:26:17;3.43;;;2.80;;
12665;SDS011;58531;59.050;17.416;2023-05-14T09:28:52;2.57;;;2.30;;
12665;SDS011;58531;59.050;17.416;2023-05-14T09:31:21;5.17;;;2.80;;
12665;SDS011;58531;59.050;17.416;2023-05-14T09:33:49;4.07;;;2.47;;
12665;SDS011;58531;59.050;17.416;2023-05-14T09:36:16;2.80;;;2.40;;
12665;SDS011;58531;59.050;17.416;2023-05-14T09:38:42;4.60;;;2.30;;
12665;SDS011;58531;59.050;17.416;2023-05-14T09:41:09;2.83;;;2.50;;
12665;SDS011;58531;59.050;17.416;2023-05-14T09:43:38;4.43;;;2.60;;
12665;SDS011;58531;59.050;17.416;2023-05-14T09:46:05;2.47;;;2.27;;
12665;SDS011;58531;59.050;17.416;2023-05-14T09:48:31;2.50;;;2.30;;
12665;SDS011;58531;59.050;17.416;2023-05-14T09:50:58;2.60;;;2.40;;
12665;SDS011;58531;59.050;17.416;2023-05-14T09:53:25;3.10;;;2.67;;
12665;SDS011;58531;59.050;17.416;2023-05-14T09:55:52;3.33;;;2.50;;
12665;SDS011;58531;59.050;17.416;2023-05-14T09:58:19;3.20;;;2.67;;
12665;SDS011;58531;59.050;17.416;2023-05-14T10:00:47;2.50;;;2.30;;
12665;SDS011;58531;59.050;17.416;2023-05-14T10:03:16;3.37;;;2.40;;
12665;SDS011;58531;59.050;17.416;2023-05-14T10:05:45;2.40;;;2.20;;
12665;SDS011;58531;59.050;17.416;2023-05-14T10:08:16;2.87;;;2.57;;
12665;SDS011;58531;59.050;17.416;2023-05-14T10:10:47;2.20;;;2.10;;
12665;SDS011;58531;59.050;17.416;2023-05-14T10:13:17;3.60;;;2.23;;
12665;SDS011;58531;59.050;17.416;2023-05-14T10:15:50;2.87;;;2.13;;
12665;SDS011;58531;59.050;17.416;2023-05-14T10:18:23;2.90;;;2.60;;
12665;SDS011;58531;59.050;17.416;2023-05-14T10:20:56;3.70;;;2.63;;
12665;SDS011;58531;59.050;17.416;2023-05-14T10:23:35;2.90;;;2.30;;
12665;SDS011;58531;59.050;17.416;2023-05-14T10:26:04;3.87;;;2.87;;
12665;SDS011;58531;59.050;17.416;2023-05-14T10:28:32;3.70;;;2.80;;
12665;SDS011;58531;59.050;17.416;2023-05-14T10:31:00;2.50;;;2.30;;
12665;SDS011;58531;59.050;17.416;2023-05-14T10:33:28;4.57;;;2.77;;
12665;SDS011;58531;59.050;17.416;2023-05-14T10:36:02;3.07;;;2.70;;
12665;SDS011;58531;59.050;17.416;2023-05-14T10:38:31;2.70;;;2.47;;
12665;SDS011;58531;59.050;17.416;2023-05-14T10:40:59;3.60;;;2.30;;
12665;SDS011;58531;59.050;17.416;2023-05-14T10:43:31;4.30;;;2.53;;
12665;SDS011;58531;59.050;17.416;2023-05-14T10:46:08;5.37;;;2.73;;
12665;SDS011;58531;59.050;17.416;2023-05-14T10:48:36;18.47;;;3.27;;
12665;SDS011;58531;59.050;17.416;2023-05-14T10:51:06;6.47;;;2.50;;
12665;SDS011;58531;59.050;17.416;2023-05-14T10:53:36;3.77;;;2.33;;
12665;SDS011;58531;59.050;17.416;2023-05-14T10:56:05;4.57;;;2.47;;
12665;SDS011;58531;59.050;17.416;2023-05-14T10:58:36;3.03;;;2.33;;
12665;SDS011;58531;59.050;17.416;2023-05-14T11:01:04;2.87;;;2.67;;
12665;SDS011;58531;59.050;17.416;2023-05-14T11:03:37;4.53;;;2.67;;
12665;SDS011;58531;59.050;17.416;2023-05-14T11:06:09;3.00;;;2.67;;
12665;SDS011;58531;59.050;17.416;2023-05-14T11:08:37;3.70;;;2.27;;
12665;SDS011;58531;59.050;17.416;2023-05-14T11:11:08;4.30;;;2.37;;
12665;SDS011;58531;59.050;17.416;2023-05-14T11:13:36;2.70;;;2.50;;
12665;SDS011;58531;59.050;17.416;2023-05-14T11:16:03;3.83;;;2.40;;
12665;SDS011;58531;59.050;17.416;2023-05-14T11:18:31;2.83;;;2.57;;
12665;SDS011;58531;59.050;17.416;2023-05-14T11:21:04;2.40;;;2.20;;
12665;SDS011;58531;59.050;17.416;2023-05-14T11:23:31;2.40;;;2.20;;
12665;SDS011;58531;59.050;17.416;2023-05-14T11:25:58;5.77;;;2.50;;
12665;SDS011;58531;59.050;17.416;2023-05-14T11:28:25;3.40;;;2.07;;
12665;SDS011;58531;59.050;17.416;2023-05-14T11:30:52;4.13;;;2.17;;
12665;SDS011;58531;59.050;17.416;2023-05-14T11:33:19;2.87;;;2.50;;
12665;SDS011;58531;59.050;17.416;2023-05-14T11:35:46;4.40;;;2.43;;
12665;SDS011;58531;59.050;17.416;2023-05-14T11:38:15;3.63;;;2.10;;
12665;SDS011;58531;59.050;17.416;2023-05-14T11:40:49;3.43;;;2.40;;
12665;SDS011;58531;59.050;17.416;2023-05-14T11:43:18;2.63;;;1.90;;
12665;SDS011;58531;59.050;17.416;2023-05-14T11:45:48;3.33;;;2.27;;
12665;SDS011;58531;59.050;17.416;2023-05-14T11:48:16;3.93;;;2.17;;
12665;SDS011;58531;59.050;17.416;2023-05-14T11:50:44;2.40;;;2.07;;
12665;SDS011;58531;59.050;17.416;2023-05-14T11:53:16;2.90;;;2.00;;
12665;SDS011;58531;59.050;17.416;2023-05-14T11:55:44;3.20;;;1.60;;
12665;SDS011;58531;59.050;17.416;2023-05-14T11:58:12;1.83;;;1.60;;
12665;SDS011;58531;59.050;17.416;2023-05-14T12:00:39;2.73;;;1.90;;
12665;SDS011;58531;59.050;17.416;2023-05-14T12:03:09;2.13;;;1.93;;
12665;SDS011;58531;59.050;17.416;2023-05-14T12:05:36;2.00;;;1.80;;
12665;SDS011;58531;59.050;17.416;2023-05-14T12:10:47;6.50;;;2.20;;
12665;SDS011;58531;59.050;17.416;2023-05-14T12:13:14;5.47;;;2.40;;
12665;SDS011;58531;59.050;17.416;2023-05-14T12:15:43;2.67;;;1.93;;
12665;SDS011;58531;59.050;17.416;2023-05-14T12:18:11;2.77;;;1.80;;
12665;SDS011;58531;59.050;17.416;2023-05-14T12:20:38;3.73;;;1.90;;
12665;SDS011;58531;59.050;17.416;2023-05-14T12:23:08;2.90;;;2.10;;
12665;SDS011;58531;59.050;17.416;2023-05-14T12:25:38;2.53;;;1.93;;
12665;SDS011;58531;59.050;17.416;2023-05-14T12:28:12;3.53;;;1.80;;
12665;SDS011;58531;59.050;17.416;2023-05-14T12:30:39;3.47;;;2.00;;
12665;SDS011;58531;59.050;17.416;2023-05-14T12:33:06;5.03;;;2.20;;
12665;SDS011;58531;59.050;17.416;2023-05-14T12:35:33;3.40;;;2.10;;
12665;SDS011;58531;59.050;17.416;2023-05-14T12:38:00;4.23;;;2.47;;
12665;SDS011;58531;59.050;17.416;2023-05-14T12:40:27;1.80;;;1.70;;
12665;SDS011;58531;59.050;17.416;2023-05-14T12:42:55;2.47;;;2.00;;
12665;SDS011;58531;59.050;17.416;2023-05-14T12:45:22;2.00;;;1.80;;
12665;SDS011;58531;59.050;17.416;2023-05-14T12:47:49;2.57;;;2.03;;
12665;SDS011;58531;59.050;17.416;2023-05-14T12:50:16;2.83;;;2.07;;
12665;SDS011;58531;59.050;17.416;2023-05-14T12:52:43;3.83;;;1.93;;
12665;SDS011;58531;59.050;17.416;2023-05-14T12:55:10;2.87;;;1.97;;
12665;SDS011;58531;59.050;17.416;2023-05-14T12:57:37;3.83;;;1.70;;
12665;SDS011;58531;59.050;17.416;2023-05-14T13:00:06;4.97;;;2.27;;
12665;SDS011;58531;59.050;17.416;2023-05-14T13:02:35;2.20;;;2.00;;
12665;SDS011;58531;59.050;17.416;2023-05-14T13:05:02;2.73;;;1.83;;
12665;SDS011;58531;59.050;17.416;2023-05-14T13:07:30;3.70;;;2.30;;
12665;SDS011;58531;59.050;17.416;2023-05-14T13:09:56;4.67;;;2.33;;
12665;SDS011;58531;59.050;17.416;2023-05-14T13:12:23;2.10;;;1.90;;
12665;SDS011;58531;59.050;17.416;2023-05-14T13:14:50;2.00;;;1.80;;
12665;SDS011;58531;59.050;17.416;2023-05-14T13:17:18;3.93;;;2.07;;
12665;SDS011;58531;59.050;17.416;2023-05-14T13:19:45;2.10;;;1.90;;
12665;SDS011;58531;59.050;17.416;2023-05-14T13:22:12;3.13;;;2.20;;
12665;SDS011;58531;59.050;17.416;2023-05-14T13:24:41;4.27;;;1.97;;
12665;SDS011;58531;59.050;17.416;2023-05-14T13:27:08;2.60;;;2.40;;
12665;SDS011;58531;59.050;17.416;2023-05-14T13:29:34;2.73;;;1.70;;
12665;SDS011;58531;59.050;17.416;2023-05-14T13:32:01;1.77;;;1.67;;
12665;SDS011;58531;59.050;17.416;2023-05-14T13:34:30;2.57;;;1.90;;
12665;SDS011;58531;59.050;17.416;2023-05-14T13:36:56;2.90;;;1.87;;
12665;SDS011;58531;59.050;17.416;2023-05-14T13:39:23;2.23;;;1.93;;
12665;SDS011;58531;59.050;17.416;2023-05-14T13:41:51;2.67;;;2.10;;
12665;SDS011;58531;59.050;17.416;2023-05-14T13:44:20;2.80;;;2.20;;
12665;SDS011;58531;59.050;17.416;2023-05-14T13:46:47;2.53;;;1.93;;
12665;SDS011;58531;59.050;17.416;2023-05-14T13:49:14;2.30;;;2.07;;
12665;SDS011;58531;59.050;17.416;2023-05-14T13:51:42;2.60;;;2.00;;
12665;SDS011;58531;59.050;17.416;2023-05-14T13:54:10;2.17;;;1.77;;
12665;SDS011;58531;59.050;17.416;2023-05-14T13:56:36;2.37;;;2.17;;
12665;SDS011;58531;59.050;17.416;2023-05-14T13:59:03;3.63;;;1.87;;
12665;SDS011;58531;59.050;17.416;2023-05-14T14:01:30;2.73;;;2.30;;
12665;SDS011;58531;59.050;17.416;2023-05-14T14:03:57;2.77;;;1.90;;
12665;SDS011;58531;59.050;17.416;2023-05-14T14:06:24;2.30;;;1.90;;
12665;SDS011;58531;59.050;17.416;2023-05-14T14:08:53;4.50;;;1.93;;
12665;SDS011;58531;59.050;17.416;2023-05-14T14:11:20;2.00;;;1.80;;
12665;SDS011;58531;59.050;17.416;2023-05-14T14:13:47;1.93;;;1.83;;
12665;SDS011;58531;59.050;17.416;2023-05-14T14:16:14;3.93;;;2.07;;
12665;SDS011;58531;59.050;17.416;2023-05-14T14:18:41;3.17;;;1.97;;
12665;SDS011;58531;59.050;17.416;2023-05-14T14:21:08;2.50;;;2.20;;
12665;SDS011;58531;59.050;17.416;2023-05-14T14:23:35;2.37;;;2.17;;
12665;SDS011;58531;59.050;17.416;2023-05-14T14:26:03;3.30;;;2.03;;
12665;SDS011;58531;59.050;17.416;2023-05-14T14:28:30;2.33;;;2.07;;
12665;SDS011;58531;59.050;17.416;2023-05-14T14:30:57;3.10;;;2.00;;
12665;SDS011;58531;59.050;17.416;2023-05-14T14:33:24;2.63;;;1.80;;
12665;SDS011;58531;59.050;17.416;2023-05-14T14:35:51;2.10;;;1.90;;
12665;SDS011;58531;59.050;17.416;2023-05-14T14:38:18;3.07;;;2.07;;
12665;SDS011;58531;59.050;17.416;2023-05-14T14:40:45;3.50;;;2.03;;
12665;SDS011;58531;59.050;17.416;2023-05-14T14:43:13;3.17;;;2.23;;
12665;SDS011;58531;59.050;17.416;2023-05-14T14:45:40;2.37;;;2.00;;
12665;SDS011;58531;59.050;17.416;2023-05-14T14:50:51;2.83;;;2.00;;
12665;SDS011;58531;59.050;17.416;2023-05-14T14:53:18;5.40;;;2.23;;
12665;SDS011;58531;59.050;17.416;2023-05-14T14:55:46;2.40;;;1.93;;
12665;SDS011;58531;59.050;17.416;2023-05-14T14:58:14;3.50;;;2.30;;
12665;SDS011;58531;59.050;17.416;2023-05-14T15:00:42;2.53;;;2.07;;
12665;SDS011;58531;59.050;17.416;2023-05-14T15:03:09;2.17;;;1.97;;
12665;SDS011;58531;59.050;17.416;2023-05-14T15:05:36;2.60;;;2.10;;
12665;SDS011;58531;59.050;17.416;2023-05-14T15:08:03;3.03;;;1.90;;
12665;SDS011;58531;59.050;17.416;2023-05-14T15:10:31;2.80;;;2.33;;
12665;SDS011;58531;59.050;17.416;2023-05-14T15:13:02;3.93;;;2.20;;
12665;SDS011;58531;59.050;17.416;2023-05-14T15:15:31;2.73;;;2.07;;
12665;SDS011;58531;59.050;17.416;2023-05-14T15:17:58;3.80;;;1.83;;
12665;SDS011;58531;59.050;17.416;2023-05-14T15:20:25;3.10;;;2.00;;
12665;SDS011;58531;59.050;17.416;2023-05-14T15:22:52;2.50;;;2.30;;
12665;SDS011;58531;59.050;17.416;2023-05-14T15:25:19;3.93;;;2.00;;
12665;SDS011;58531;59.050;17.416;2023-05-14T15:27:47;2.73;;;2.03;;
12665;SDS011;58531;59.050;17.416;2023-05-14T15:30:14;2.87;;;2.03;;
12665;SDS011;58531;59.050;17.416;2023-05-14T15:32:43;2.20;;;2.00;;
12665;SDS011;58531;59.050;17.416;2023-05-14T15:35:10;3.37;;;2.00;;
12665;SDS011;58531;59.050;17.416;2023-05-14T15:37:38;2.23;;;2.00;;
12665;SDS011;58531;59.050;17.416;2023-05-14T15:40:06;2.50;;;2.00;;
12665;SDS011;58531;59.050;17.416;2023-05-14T15:42:34;2.30;;;1.70;;
12665;SDS011;58531;59.050;17.416;2023-05-14T15:45:02;3.20;;;2.30;;
12665;SDS011;58531;59.050;17.416;2023-05-14T15:47:29;2.40;;;1.67;;
12665;SDS011;58531;59.050;17.416;2023-05-14T15:49:58;2.37;;;2.00;;
12665;SDS011;58531;59.050;17.416;2023-05-14T15:52:25;2.17;;;1.93;;
12665;SDS011;58531;59.050;17.416;2023-05-14T15:54:52;6.57;;;2.20;;
12665;SDS011;58531;59.050;17.416;2023-05-14T15:57:21;2.53;;;1.90;;
12665;SDS011;58531;59.050;17.416;2023-05-14T15:59:48;2.20;;;1.93;;
12665;SDS011;58531;59.050;17.416;2023-05-14T16:02:15;2.87;;;1.90;;
12665;SDS011;58531;59.050;17.416;2023-05-14T16:04:42;1.83;;;1.70;;
12665;SDS011;58531;59.050;17.416;2023-05-14T16:07:11;2.30;;;2.10;;
12665;SDS011;58531;59.050;17.416;2023-05-14T16:09:38;2.97;;;2.00;;
12665;SDS011;58531;59.050;17.416;2023-05-14T16:12:06;3.20;;;2.00;;
12665;SDS011;58531;59.050;17.416;2023-05-14T16:14:33;2.30;;;1.90;;
12665;SDS011;58531;59.050;17.416;2023-05-14T16:17:03;2.83;;;2.10;;
12665;SDS011;58531;59.050;17.416;2023-05-14T16:19:49;2.17;;;1.97;;
12665;SDS011;58531;59.050;17.416;2023-05-14T16:22:17;4.23;;;1.90;;
12665;SDS011;58531;59.050;17.416;2023-05-14T16:24:44;2.93;;;2.20;;
12665;SDS011;58531;59.050;17.416;2023-05-14T16:27:11;3.23;;;2.07;;
12665;SDS011;58531;59.050;17.416;2023-05-14T16:29:37;2.80;;;2.07;;
12665;SDS011;58531;59.050;17.416;2023-05-14T16:32:04;3.03;;;2.10;;
12665;SDS011;58531;59.050;17.416;2023-05-14T16:34:31;2.53;;;2.10;;
12665;SDS011;58531;59.050;17.416;2023-05-14T16:36:58;2.70;;;2.10;;
12665;SDS011;58531;59.050;17.416;2023-05-14T16:39:26;2.70;;;2.00;;
12665;SDS011;58531;59.050;17.416;2023-05-14T16:41:53;3.03;;;2.13;;
12665;SDS011;58531;59.050;17.416;2023-05-14T16:44:20;3.37;;;2.43;;
12665;SDS011;58531;59.050;17.416;2023-05-14T16:46:47;4.23;;;2.40;;
12665;SDS011;58531;59.050;17.416;2023-05-14T16:49:14;2.27;;;2.07;;
12665;SDS011;58531;59.050;17.416;2023-05-14T16:51:41;3.47;;;2.30;;
12665;SDS011;58531;59.050;17.416;2023-05-14T16:54:08;3.03;;;2.00;;
12665;SDS011;58531;59.050;17.416;2023-05-14T16:56:36;4.40;;;2.30;;
12665;SDS011;58531;59.050;17.416;2023-05-14T16:59:03;3.17;;;1.97;;
12665;SDS011;58531;59.050;17.416;2023-05-14T17:01:31;2.10;;;2.00;;
12665;SDS011;58531;59.050;17.416;2023-05-14T17:03:57;5.13;;;2.43;;
12665;SDS011;58531;59.050;17.416;2023-05-14T17:06:24;3.83;;;2.50;;
12665;SDS011;58531;59.050;17.416;2023-05-14T17:08:51;3.43;;;2.20;;
12665;SDS011;58531;59.050;17.416;2023-05-14T17:11:18;2.90;;;2.43;;
12665;SDS011;58531;59.050;17.416;2023-05-14T17:13:46;3.77;;;2.57;;
12665;SDS011;58531;59.050;17.416;2023-05-14T17:16:13;3.53;;;2.30;;
12665;SDS011;58531;59.050;17.416;2023-05-14T17:18:40;2.87;;;2.40;;
12665;SDS011;58531;59.050;17.416;2023-05-14T17:21:07;3.43;;;2.17;;
12665;SDS011;58531;59.050;17.416;2023-05-14T17:23:34;4.93;;;2.20;;
12665;SDS011;58531;59.050;17.416;2023-05-14T17:26:01;2.57;;;2.27;;
12665;SDS011;58531;59.050;17.416;2023-05-14T17:28:28;2.53;;;2.33;;
12665;SDS011;58531;59.050;17.416;2023-05-14T17:30:56;2.60;;;2.20;;
12665;SDS011;58531;59.050;17.416;2023-05-14T17:33:23;2.20;;;2.00;;
12665;SDS011;58531;59.050;17.416;2023-05-14T17:35:50;3.63;;;1.90;;
12665;SDS011;58531;59.050;17.416;2023-05-14T17:38:17;5.20;;;2.53;;
12665;SDS011;58531;59.050;17.416;2023-05-14T17:40:44;4.93;;;2.30;;
12665;SDS011;58531;59.050;17.416;2023-05-14T17:43:11;2.50;;;2.20;;
12665;SDS011;58531;59.050;17.416;2023-05-14T17:45:38;6.17;;;2.40;;
12665;SDS011;58531;59.050;17.416;2023-05-14T17:48:06;2.70;;;2.50;;
12665;SDS011;58531;59.050;17.416;2023-05-14T17:50:33;2.57;;;2.17;;
12665;SDS011;58531;59.050;17.416;2023-05-14T17:53:00;3.03;;;2.70;;
12665;SDS011;58531;59.050;17.416;2023-05-14T17:55:27;3.67;;;2.20;;
12665;SDS011;58531;59.050;17.416;2023-05-14T17:57:54;4.80;;;2.37;;
12665;SDS011;58531;59.050;17.416;2023-05-14T18:00:20;3.37;;;2.20;;
12665;SDS011;58531;59.050;17.416;2023-05-14T18:02:47;2.37;;;2.17;;
12665;SDS011;58531;59.050;17.416;2023-05-14T18:05:16;3.97;;;2.40;;
12665;SDS011;58531;59.050;17.416;2023-05-14T18:07:42;5.90;;;2.20;;
12665;SDS011;58531;59.050;17.416;2023-05-14T18:10:09;2.80;;;2.20;;
12665;SDS011;58531;59.050;17.416;2023-05-14T18:12:36;3.27;;;2.60;;
12665;SDS011;58531;59.050;17.416;2023-05-14T18:15:03;2.43;;;2.20;;
12665;SDS011;58531;59.050;17.416;2023-05-14T18:17:31;3.17;;;2.33;;
12665;SDS011;58531;59.050;17.416;2023-05-14T18:19:58;2.93;;;2.17;;
12665;SDS011;58531;59.050;17.416;2023-05-14T18:22:26;3.13;;;2.30;;
12665;SDS011;58531;59.050;17.416;2023-05-14T18:24:53;5.00;;;2.50;;
12665;SDS011;58531;59.050;17.416;2023-05-14T18:27:20;3.67;;;2.80;;
12665;SDS011;58531;59.050;17.416;2023-05-14T18:29:47;4.00;;;2.27;;
12665;SDS011;58531;59.050;17.416;2023-05-14T18:32:15;2.47;;;2.27;;
12665;SDS011;58531;59.050;17.416;2023-05-14T18:34:42;4.00;;;2.13;;
12665;SDS011;58531;59.050;17.416;2023-05-14T18:37:09;3.47;;;2.47;;
12665;SDS011;58531;59.050;17.416;2023-05-14T18:39:37;2.30;;;2.10;;
12665;SDS011;58531;59.050;17.416;2023-05-14T18:42:05;4.17;;;2.10;;
12665;SDS011;58531;59.050;17.416;2023-05-14T18:44:32;2.60;;;2.07;;
12665;SDS011;58531;59.050;17.416;2023-05-14T18:46:58;3.07;;;2.43;;
12665;SDS011;58531;59.050;17.416;2023-05-14T18:49:25;4.97;;;2.77;;
12665;SDS011;58531;59.050;17.416;2023-05-14T18:51:52;3.63;;;2.13;;
12665;SDS011;58531;59.050;17.416;2023-05-14T18:54:19;3.57;;;2.67;;
12665;SDS011;58531;59.050;17.416;2023-05-14T18:56:47;2.90;;;2.27;;
12665;SDS011;58531;59.050;17.416;2023-05-14T18:59:14;3.93;;;2.43;;
12665;SDS011;58531;59.050;17.416;2023-05-14T19:01:41;4.73;;;2.40;;
12665;SDS011;58531;59.050;17.416;2023-05-14T19:04:08;2.90;;;2.63;;
12665;SDS011;58531;59.050;17.416;2023-05-14T19:06:35;3.00;;;2.67;;
12665;SDS011;58531;59.050;17.416;2023-05-14T19:09:04;3.20;;;2.90;;
12665;SDS011;58531;59.050;17.416;2023-05-14T19:11:31;3.17;;;2.40;;
12665;SDS011;58531;59.050;17.416;2023-05-14T19:13:59;4.77;;;2.57;;
12665;SDS011;58531;59.050;17.416;2023-05-14T19:16:26;3.40;;;2.50;;
12665;SDS011;58531;59.050;17.416;2023-05-14T19:18:53;3.13;;;2.60;;
12665;SDS011;58531;59.050;17.416;2023-05-14T19:21:19;3.23;;;2.50;;
12665;SDS011;58531;59.050;17.416;2023-05-14T19:23:46;3.80;;;2.70;;
12665;SDS011;58531;59.050;17.416;2023-05-14T19:26:13;4.67;;;2.50;;
12665;SDS011;58531;59.050;17.416;2023-05-14T19:28:40;3.87;;;2.60;;
12665;SDS011;58531;59.050;17.416;2023-05-14T19:31:08;4.50;;;2.50;;
12665;SDS011;58531;59.050;17.416;2023-05-14T19:33:35;2.80;;;2.53;;
12665;SDS011;58531;59.050;17.416;2023-05-14T19:36:02;3.80;;;2.40;;
12665;SDS011;58531;59.050;17.416;2023-05-14T19:38:30;7.30;;;2.73;;
12665;SDS011;58531;59.050;17.416;2023-05-14T19:40:57;6.57;;;2.90;;
12665;SDS011;58531;59.050;17.416;2023-05-14T19:43:24;2.60;;;2.40;;
12665;SDS011;58531;59.050;17.416;2023-05-14T19:45:52;3.10;;;2.80;;
12665;SDS011;58531;59.050;17.416;2023-05-14T19:48:20;2.67;;;2.30;;
12665;SDS011;58531;59.050;17.416;2023-05-14T19:50:47;2.77;;;2.57;;
12665;SDS011;58531;59.050;17.416;2023-05-14T19:53:14;4.13;;;2.90;;
12665;SDS011;58531;59.050;17.416;2023-05-14T19:55:40;4.73;;;3.10;;
12665;SDS011;58531;59.050;17.416;2023-05-14T19:58:07;3.43;;;2.83;;
12665;SDS011;58531;59.050;17.416;2023-05-14T20:00:34;4.13;;;2.80;;
12665;SDS011;58531;59.050;17.416;2023-05-14T20:03:01;3.33;;;2.47;;
12665;SDS011;58531;59.050;17.416;2023-05-14T20:05:31;2.70;;;2.50;;
12665;SDS011;58531;59.050;17.416;2023-05-14T20:07:58;2.93;;;2.40;;
12665;SDS011;58531;59.050;17.416;2023-05-14T20:10:25;3.67;;;2.53;;
12665;SDS011;58531;59.050;17.416;2023-05-14T20:12:52;3.00;;;2.70;;
12665;SDS011;58531;59.050;17.416;2023-05-14T20:15:18;7.53;;;2.87;;
12665;SDS011;58531;59.050;17.416;2023-05-14T20:17:48;4.03;;;2.63;;
12665;SDS011;58531;59.050;17.416;2023-05-14T20:20:15;4.20;;;2.70;;
12665;SDS011;58531;59.050;17.416;2023-05-14T20:22:44;3.10;;;2.77;;
12665;SDS011;58531;59.050;17.416;2023-05-14T20:25:10;2.77;;;2.50;;
12665;SDS011;58531;59.050;17.416;2023-05-14T20:27:37;3.90;;;2.87;;
12665;SDS011;58531;59.050;17.416;2023-05-14T20:30:05;3.23;;;2.87;;
12665;SDS011;58531;59.050;17.416;2023-05-14T20:32:33;3.10;;;2.80;;
12665;SDS011;58531;59.050;17.416;2023-05-14T20:35:00;4.40;;;2.90;;
12665;SDS011;58531;59.050;17.416;2023-05-14T20:37:27;5.10;;;2.87;;
12665;SDS011;58531;59.050;17.416;2023-05-14T20:39:56;2.83;;;2.63;;
12665;SDS011;58531;59.050;17.416;2023-05-14T20:42:24;2.97;;;2.77;;
12665;SDS011;58531;59.050;17.416;2023-05-14T20:44:51;3.83;;;2.90;;
12665;SDS011;58531;59.050;17.416;2023-05-14T20:47:19;2.93;;;2.37;;
12665;SDS011;58531;59.050;17.416;2023-05-14T20:49:48;6.53;;;3.57;;
12665;SDS011;58531;59.050;17.416;2023-05-14T20:52:15;3.20;;;2.90;;
12665;SDS011;58531;59.050;17.416;2023-05-14T20:54:43;3.73;;;2.90;;
12665;SDS011;58531;59.050;17.416;2023-05-14T20:57:11;5.37;;;2.80;;
12665;SDS011;58531;59.050;17.416;2023-05-14T20:59:40;3.43;;;2.80;;
12665;SDS011;58531;59.050;17.416;2023-05-14T21:02:07;2.93;;;2.73;;
12665;SDS011;58531;59.050;17.416;2023-05-14T21:04:34;4.20;;;3.10;;
12665;SDS011;58531;59.050;17.416;2023-05-14T21:07:01;3.40;;;3.10;;
12665;SDS011;58531;59.050;17.416;2023-05-14T21:09:28;3.20;;;2.80;;
12665;SDS011;58531;59.050;17.416;2023-05-14T21:11:54;2.90;;;2.63;;
12665;SDS011;58531;59.050;17.416;2023-05-14T21:14:23;3.03;;;2.70;;
12665;SDS011;58531;59.050;17.416;2023-05-14T21:16:50;3.10;;;2.80;;
12665;SDS011;58531;59.050;17.416;2023-05-14T21:19:17;4.30;;;2.93;;
12665;SDS011;58531;59.050;17.416;2023-05-14T21:21:44;4.67;;;2.90;;
12665;SDS011;58531;59.050;17.416;2023-05-14T21:24:11;3.60;;;3.30;;
12665;SDS011;58531;59.050;17.416;2023-05-14T21:26:38;3.50;;;3.20;;
12665;SDS011;58531;59.050;17.416;2023-05-14T21:29:05;2.97;;;2.77;;
12665;SDS011;58531;59.050;17.416;2023-05-14T21:31:34;5.40;;;3.30;;
12665;SDS011;58531;59.050;17.416;2023-05-14T21:34:00;3.50;;;2.67;;
12665;SDS011;58531;59.050;17.416;2023-05-14T21:36:27;7.87;;;2.90;;
12665;SDS011;58531;59.050;17.416;2023-05-14T21:38:55;3.30;;;3.00;;
12665;SDS011;58531;59.050;17.416;2023-05-14T21:41:22;4.23;;;3.20;;
12665;SDS011;58531;59.050;17.416;2023-05-14T21:43:48;3.57;;;2.90;;
12665;SDS011;58531;59.050;17.416;2023-05-14T21:46:15;4.10;;;2.47;;
12665;SDS011;58531;59.050;17.416;2023-05-14T21:48:44;2.80;;;2.57;;
12665;SDS011;58531;59.050;17.416;2023-05-14T21:51:11;3.43;;;2.80;;
12665;SDS011;58531;59.050;17.416;2023-05-14T21:53:37;6.67;;;3.30;;
12665;SDS011;58531;59.050;17.416;2023-05-14T21:56:04;4.20;;;3.10;;
12665;SDS011;58531;59.050;17.416;2023-05-14T21:58:32;3.47;;;3.10;;
12665;SDS011;58531;59.050;17.416;2023-05-14T22:00:59;5.07;;;2.77;;
12665;SDS011;58531;59.050;17.416;2023-05-14T22:03:25;3.00;;;2.80;;
12665;SDS011;58531;59.050;17.416;2023-05-14T22:05:54;3.20;;;2.70;;
12665;SDS011;58531;59.050;17.416;2023-05-14T22:08:21;6.63;;;3.60;;
12665;SDS011;58531;59.050;17.416;2023-05-14T22:10:47;3.53;;;3.23;;
12665;SDS011;58531;59.050;17.416;2023-05-14T22:13:14;3.40;;;3.10;;
12665;SDS011;58531;59.050;17.416;2023-05-14T22:15:41;4.23;;;2.97;;
12665;SDS011;58531;59.050;17.416;2023-05-14T22:18:08;2.90;;;2.70;;
12665;SDS011;58531;59.050;17.416;2023-05-14T22:20:36;3.47;;;3.17;;
12665;SDS011;58531;59.050;17.416;2023-05-14T22:23:05;3.27;;;2.93;;